»·PEaware :: N645PC LSGG-LFMN

N645PC :: LSGG-LFMN

FLIGHT INFORMATION

Flight Status: Arrived
Operator: Privately registered:
United States
More flights under this callsign
Pilot: Armando C. (16967)
Aircraft: PILATUS PC-12 EAGLE
(PC12)
More flights by this aircraft type
Origin: LSGG Geneva
Switzerland
Destination: LFMN Nice/Cote d'Azur
France
More flights between these airports :: More routes between these airports
Route: MEDAM VEVAR
File this flight plan on PilotEdge
Remarks:
Altitude:
(Current/Filed)
21,000ft
Speed:
(Current/Filed)
260kts
Departed: 16-Feb-19 03:17 AM
Arrived: 16-Feb-19 04:11 AM
Distance/Time
Traveled:
161nm/0:54
Distance/Time
To Go:
Arrived

Flight Plot

Page will automatically refresh every two minutes.


Map Options




Map Legend


Flown Route
Filed Route
Departure Airport
Arrival Airport
Navaid (VOR, NDB)
Fix

Horizontal Profiles

Position Reports

Time Latitude Longitude Heading Altitude Ground
Speed
16-Feb-19 03:07 46.229159 6.104010 150 1414ft 0kts
16-Feb-19 03:08 46.229159 6.104010 150 1414ft 0kts
16-Feb-19 03:09 46.229352 6.103873 150 1414ft 4kts
16-Feb-19 03:10 46.230535 6.104755 357 1414ft 14kts
16-Feb-19 03:11 46.234053 6.106414 43 1414ft 24kts
16-Feb-19 03:12 46.238199 6.112486 46 1414ft 28kts
16-Feb-19 03:13 46.243345 6.119361 302 1414ft 0kts
16-Feb-19 03:14 46.243345 6.119361 301 1414ft 0kts
16-Feb-19 03:15 46.243345 6.119360 302 1414ft 0kts
16-Feb-19 03:15 46.243345 6.119360 302 1414ft 0kts
16-Feb-19 03:17 46.241502 6.113969 225 1414ft 65kts
16-Feb-19 03:18 46.219048 6.077437 230 2685ft 144kts
16-Feb-19 03:18 46.191926 6.075771 121 4315ft 144kts
16-Feb-19 03:19 46.171468 6.125963 118 6143ft 148kts
16-Feb-19 03:21 46.145730 6.185335 133 8165ft 156kts
16-Feb-19 03:21 46.115159 6.215928 146 9495ft 166kts
16-Feb-19 03:22 46.075315 6.250490 146 11059ft 173kts
16-Feb-19 03:23 46.033668 6.286454 145 12587ft 179kts
16-Feb-19 03:24 45.990454 6.323731 145 14042ft 185kts
16-Feb-19 03:25 45.945815 6.362163 145 15431ft 192kts
16-Feb-19 03:26 45.899782 6.401717 144 16757ft 198kts
16-Feb-19 03:27 45.852552 6.442212 144 17972ft 204kts
16-Feb-19 03:28 45.803154 6.484324 144 19151ft 210kts
16-Feb-19 03:29 45.752385 6.527540 144 20274ft 216kts
16-Feb-19 03:30 45.698976 6.573069 145 20860ft 245kts
16-Feb-19 03:31 45.636839 6.625626 145 20856ft 274kts
16-Feb-19 03:32 45.570362 6.681788 146 20854ft 285kts
16-Feb-19 03:33 45.501727 6.739734 146 20851ft 289kts
16-Feb-19 03:34 45.432448 6.798077 146 20793ft 291kts
16-Feb-19 03:35 45.362781 6.856595 146 20739ft 292kts
16-Feb-19 03:36 45.292822 6.915199 146 20687ft 292kts
16-Feb-19 03:37 45.215186 6.946937 173 20650ft 297kts
16-Feb-19 03:38 45.133371 6.959670 173 20641ft 296kts
16-Feb-19 03:39 45.051654 6.972376 173 20641ft 295kts
16-Feb-19 03:40 44.970120 6.985080 172 20642ft 295kts
16-Feb-19 03:41 44.888769 6.998204 171 20639ft 294kts
16-Feb-19 03:42 44.808501 7.010989 171 20638ft 289kts
16-Feb-19 03:43 44.727901 7.025369 170 19734ft 291kts
16-Feb-19 03:44 44.648166 7.039818 170 18722ft 287kts
16-Feb-19 03:45 44.569506 7.054027 170 17715ft 284kts
16-Feb-19 03:46 44.492437 7.070975 163 16713ft 279kts
16-Feb-19 03:47 44.417457 7.096754 163 15710ft 276kts
16-Feb-19 03:48 44.343344 7.122316 163 14716ft 272kts
16-Feb-19 03:49 44.269394 7.147948 163 14642ft 276kts
16-Feb-19 03:50 44.194309 7.173921 163 14643ft 279kts
16-Feb-19 03:51 44.118897 7.200036 163 14643ft 280kts
16-Feb-19 03:52 44.043078 7.226293 163 14644ft 281kts
16-Feb-19 03:53 43.967126 7.252554 163 14505ft 287kts
16-Feb-19 03:54 43.888924 7.279540 163 13519ft 290kts
16-Feb-19 03:55 43.816927 7.303872 163 12479ft 242kts
16-Feb-19 03:56 43.755061 7.324336 163 11453ft 219kts
16-Feb-19 03:57 43.697175 7.343907 163 10433ft 210kts
16-Feb-19 03:58 43.640204 7.345968 181 9425ft 199kts
16-Feb-19 03:59 43.586863 7.340407 184 8414ft 188kts
16-Feb-19 04:00 43.544964 7.305783 223 7428ft 177kts
16-Feb-19 04:01 43.507832 7.262841 223 6417ft 172kts
16-Feb-19 04:02 43.496022 7.211711 288 4089ft 137kts
16-Feb-19 04:03 43.516218 7.173581 310 2208ft 115kts
16-Feb-19 04:04 43.540046 7.153861 359 1267ft 105kts
16-Feb-19 04:05 43.567961 7.148929 348 1163ft 100kts
16-Feb-19 04:06 43.595475 7.143120 352 1141ft 100kts
16-Feb-19 04:07 43.618722 7.159176 41 969ft 98kts
16-Feb-19 04:08 43.637556 7.184602 40 446ft 91kts
16-Feb-19 04:09 43.655123 7.208652 39 11ft 73kts
16-Feb-19 04:10 43.662553 7.217003 310 19ft 14kts
16-Feb-19 04:11 43.662652 7.216847 312 19ft 3kts
16-Feb-19 04:12 43.663345 7.211962 258 27ft 19kts
16-Feb-19 04:13 43.663429 7.206365 3 24ft 2kts
16-Feb-19 04:14 43.663474 7.206369 1 24ft 0kts
16-Feb-19 04:15 43.663474 7.206369 1 24ft 0kts

Navigation Log

Ident Type
Flight plan parsing failed, navigation log unavailable